Time;durP1;ratioP1;P1;durP2;ratioP2;P2;SDS_P1;SDS_P2;PMS_P1;PMS_P2;Temp;Humidity;BMP_temperature;BMP_pressure;BME280_temperature;BME280_humidity;BME280_pressure;Samples;Min_cycle;Max_cycle;Signal;HPM_P1;HPM_P2
2023/09/08 00:02:10;;;;;;;29.60;26.40;;;;;;;14.65;100.00;99706.34;109625;1251;64109;-67
2023/09/08 00:04:36;;;;;;;27.90;24.90;;;;;;;14.65;100.00;99710.09;109620;1251;58921;-67
2023/09/08 00:07:04;;;;;;;29.20;26.10;;;;;;;14.65;100.00;99708.45;109649;1251;58951;-68
2023/09/08 00:09:30;;;;;;;28.10;25.20;;;;;;;14.66;100.00;99705.88;109689;1251;64504;-68
2023/09/08 00:11:57;;;;;;;28.60;25.60;;;;;;;14.67;100.00;99704.77;109668;1251;60505;-68
2023/09/08 00:14:23;;;;;;;26.80;24.10;;;;;;;14.68;100.00;99700.23;109705;1251;64043;-68
2023/09/08 00:16:54;;;;;;;28.90;25.80;;;;;;;14.68;100.00;99697.19;109711;1250;58933;-68
2023/09/08 00:19:21;;;;;;;27.80;24.60;;;;;;;14.67;100.00;99698.11;109669;1251;59051;-67
2023/09/08 00:21:47;;;;;;;28.30;25.30;;;;;;;14.68;100.00;99698.45;109670;1251;66091;-68
2023/09/08 00:24:14;;;;;;;27.30;24.50;;;;;;;14.67;100.00;99694.06;109427;1251;59047;-67
2023/09/08 00:26:40;;;;;;;26.60;24.00;;;;;;;14.66;100.00;99692.31;109594;1250;59093;-68
2023/09/08 00:29:07;;;;;;;26.90;24.10;;;;;;;14.65;100.00;99692.79;109706;1251;58977;-68
2023/09/08 00:31:34;;;;;;;27.10;24.20;;;;;;;14.63;100.00;99695.27;109699;1250;59073;-68
2023/09/08 00:34:00;;;;;;;26.10;23.40;;;;;;;14.58;100.00;99695.44;109633;1250;66119;-68
2023/09/08 00:36:27;;;;;;;24.70;22.10;;;;;;;14.53;100.00;99694.69;109638;1251;58953;-68
2023/09/08 00:38:53;;;;;;;26.40;23.60;;;;;;;14.47;100.00;99693.67;109672;1251;64041;-68
2023/09/08 00:41:20;;;;;;;25.00;22.40;;;;;;;14.41;100.00;99690.71;109672;1251;58930;-68
2023/09/08 00:43:46;;;;;;;26.10;23.50;;;;;;;14.37;100.00;99689.92;109635;1251;58905;-67
2023/09/08 00:46:13;;;;;;;24.60;22.10;;;;;;;14.33;100.00;99689.19;109650;1251;59589;-68
2023/09/08 00:48:39;;;;;;;24.10;21.80;;;;;;;14.27;100.00;99689.20;109668;1251;60213;-67
2023/09/08 00:51:07;;;;;;;24.50;22.00;;;;;;;14.23;100.00;99688.96;109605;1251;64104;-68
2023/09/08 00:53:34;;;;;;;24.20;21.80;;;;;;;14.17;100.00;99686.50;109646;1250;58943;-68
2023/09/08 00:56:00;;;;;;;24.10;21.60;;;;;;;14.12;100.00;99683.64;109650;1251;58953;-68
2023/09/08 00:58:28;;;;;;;23.90;21.40;;;;;;;14.07;100.00;99683.14;109663;1254;65821;-68
2023/09/08 01:00:57;;;;;;;23.20;20.90;;;;;;;14.00;100.00;99683.39;109722;1251;61559;-68
2023/09/08 01:03:24;;;;;;;23.00;20.60;;;;;;;13.93;100.00;99679.99;109633;1251;62867;-68
2023/09/08 01:05:51;;;;;;;21.50;19.30;;;;;;;13.85;100.00;99677.48;109584;1250;58942;-68
2023/09/08 01:08:18;;;;;;;20.40;18.20;;;;;;;13.80;100.00;99679.14;109660;1251;58964;-68
2023/09/08 01:10:46;;;;;;;22.40;20.10;;;;;;;13.76;100.00;99677.42;109441;1251;65773;-68
2023/09/08 01:13:12;;;;;;;22.40;20.10;;;;;;;13.72;100.00;99679.64;109671;1251;60099;-68
2023/09/08 01:15:39;;;;;;;21.50;18.50;;;;;;;13.70;100.00;99679.10;109632;1251;58999;-68
2023/09/08 01:18:05;;;;;;;21.80;18.90;;;;;;;13.67;100.00;99675.88;109614;1251;58985;-68
2023/09/08 01:21:09;;;;;;;21.60;18.10;;;;;;;13.66;100.00;99676.15;109651;1251;59041;-68
2023/09/08 01:23:38;;;;;;;21.00;18.70;;;;;;;13.66;100.00;99679.19;109601;1250;64658;-68
2023/09/08 01:26:10;;;;;;;21.50;19.00;;;;;;;13.67;100.00;99679.10;109638;1251;60082;-68
2023/09/08 01:28:39;;;;;;;21.10;19.10;;;;;;;13.71;100.00;99683.96;109624;1251;64062;-68
2023/09/08 01:31:07;;;;;;;22.70;20.30;;;;;;;13.75;100.00;99684.95;109657;1251;58940;-68
2023/09/08 01:33:34;;;;;;;21.70;19.40;;;;;;;13.78;100.00;99685.83;109339;1251;59043;-68
2023/09/08 01:36:01;;;;;;;20.00;18.10;;;;;;;13.81;100.00;99683.98;109676;1250;66039;-68
2023/09/08 01:38:28;;;;;;;21.10;18.90;;;;;;;13.87;100.00;99683.61;109635;1251;60220;-67
2023/09/08 01:40:54;;;;;;;21.70;19.40;;;;;;;13.91;100.00;99681.41;109304;1251;64106;-67
2023/09/08 01:43:21;;;;;;;22.00;19.70;;;;;;;13.94;100.00;99680.46;109668;1251;58897;-68
2023/09/08 01:45:47;;;;;;;23.30;19.80;;;;;;;13.99;100.00;99682.09;109651;1250;58969;-67
2023/09/08 01:48:14;;;;;;;21.50;19.40;;;;;;;14.01;100.00;99678.52;109638;1251;59608;-68
2023/09/08 01:50:40;;;;;;;21.00;18.90;;;;;;;14.06;100.00;99679.63;109662;1250;58929;-67
2023/09/08 01:53:07;;;;;;;21.30;18.30;;;;;;;14.09;100.00;99678.16;109680;1251;62865;-68
2023/09/08 01:55:33;;;;;;;20.90;18.70;;;;;;;14.12;100.00;99683.50;109590;1251;58923;-68
2023/09/08 01:58:00;;;;;;;22.20;19.80;;;;;;;14.12;100.00;99681.55;109681;1250;58938;-68
2023/09/08 02:00:30;;;;;;;23.10;20.60;;;;;;;14.13;100.00;99683.92;109626;1251;65497;-68
2023/09/08 02:02:56;;;;;;;23.20;20.90;;;;;;;14.15;100.00;99683.96;109652;1251;61050;-68
2023/09/08 02:05:25;;;;;;;25.20;22.60;;;;;;;14.17;100.00;99680.60;109670;1250;64142;-68
2023/09/08 02:07:52;;;;;;;28.20;25.40;;;;;;;14.22;100.00;99677.06;109589;1251;59029;-68
2023/09/08 02:10:18;;;;;;;28.50;25.50;;;;;;;14.26;100.00;99675.88;109650;1250;59382;-68
2023/09/08 02:12:45;;;;;;;29.30;26.30;;;;;;;14.30;100.00;99676.27;109699;1251;66021;-68
2023/09/08 02:15:11;;;;;;;30.10;27.10;;;;;;;14.33;100.00;99675.90;109641;1251;58975;-68
2023/09/08 02:17:38;;;;;;;31.50;28.50;;;;;;;14.35;100.00;99679.69;109433;1251;62802;-67
2023/09/08 02:20:05;;;;;;;32.50;29.00;;;;;;;14.36;100.00;99677.16;109609;1251;58953;-68
2023/09/08 02:22:31;;;;;;;34.20;30.60;;;;;;;14.35;100.00;99673.95;109638;1251;58928;-68
2023/09/08 02:24:58;;;;;;;34.30;30.70;;;;;;;14.34;100.00;99673.11;109612;1251;59675;-68
2023/09/08 02:27:25;;;;;;;36.80;32.90;;;;;;;14.34;100.00;99670.13;109621;1251;60099;-68
2023/09/08 02:29:51;;;;;;;38.80;35.00;;;;;;;14.33;100.00;99673.05;109648;1251;58996;-67
2023/09/08 02:32:18;;;;;;;40.50;36.40;;;;;;;14.32;100.00;99671.33;109628;1251;59065;-69
2023/09/08 02:34:44;;;;;;;40.50;36.10;;;;;;;14.29;100.00;99667.78;109639;1251;58851;-68
2023/09/08 02:37:11;;;;;;;40.20;36.20;;;;;;;14.26;100.00;99669.98;109662;1251;59225;-68
2023/09/08 02:39:38;;;;;;;43.30;38.60;;;;;;;14.23;100.00;99671.27;109668;1250;58932;-68
2023/09/08 02:42:04;;;;;;;43.80;38.40;;;;;;;14.20;100.00;99668.77;109623;1251;64117;-68
2023/09/08 02:44:32;;;;;;;46.80;41.80;;;;;;;14.17;100.00;99672.59;109655;1251;58961;-68
2023/09/08 02:46:58;;;;;;;48.80;43.00;;;;;;;14.14;100.00;99669.73;109574;1251;58871;-67
2023/09/08 02:49:25;;;;;;;48.20;43.00;;;;;;;14.11;100.00;99667.65;109650;1251;59575;-68
2023/09/08 02:51:51;;;;;;;45.70;41.10;;;;;;;14.08;100.00;99668.27;109660;1251;60103;-68
2023/09/08 02:54:18;;;;;;;50.90;44.20;;;;;;;14.05;100.00;99665.94;109584;1250;59035;-68
2023/09/08 02:56:44;;;;;;;51.10;46.00;;;;;;;14.02;100.00;99665.20;109615;1251;59047;-68
2023/09/08 02:59:11;;;;;;;51.70;46.50;;;;;;;14.00;100.00;99664.27;109691;1251;58936;-68
2023/09/08 03:01:37;;;;;;;56.30;50.40;;;;;;;13.97;100.00;99666.64;109642;1250;59072;-68
2023/09/08 03:04:04;;;;;;;51.80;46.00;;;;;;;13.94;100.00;99663.31;109632;1250;58910;-68
2023/09/08 03:06:30;;;;;;;52.40;46.70;;;;;;;13.90;100.00;99660.35;109658;1251;59327;-67
2023/09/08 03:08:58;;;;;;;53.20;47.50;;;;;;;13.87;100.00;99656.64;109551;1250;58928;-68
2023/09/08 03:11:25;;;;;;;51.60;46.00;;;;;;;13.88;100.00;99654.30;109635;1250;59017;-68
2023/09/08 03:13:51;;;;;;;54.70;48.90;;;;;;;13.87;100.00;99655.21;109641;1250;64868;-68
2023/09/08 03:16:18;;;;;;;54.40;48.60;;;;;;;13.84;100.00;99651.50;109700;1250;58967;-68
2023/09/08 03:18:44;;;;;;;52.70;47.10;;;;;;;13.81;100.00;99648.80;109628;1250;58955;-68
2023/09/08 03:21:14;;;;;;;53.00;47.50;;;;;;;13.80;100.00;99651.44;109611;1250;59035;-68
2023/09/08 03:23:42;;;;;;;51.20;45.80;;;;;;;13.74;100.00;99649.52;109662;1250;58903;-68
2023/09/08 03:26:10;;;;;;;49.30;44.00;;;;;;;13.68;100.00;99649.73;109652;1250;66029;-68
2023/09/08 03:28:38;;;;;;;48.40;43.00;;;;;;;13.62;100.00;99645.68;109620;1250;58985;-68
2023/09/08 03:31:05;;;;;;;50.80;45.40;;;;;;;13.57;100.00;99642.84;109638;1250;64029;-68
2023/09/08 03:33:32;;;;;;;57.60;50.30;;;;;;;13.52;100.00;99641.20;109633;1251;58930;-68
2023/09/08 03:35:58;;;;;;;55.40;49.20;;;;;;;13.48;100.00;99638.80;109630;1250;58852;-68
2023/09/08 03:38:25;;;;;;;53.70;45.60;;;;;;;13.44;100.00;99638.35;109605;1250;66014;-68
2023/09/08 03:40:52;;;;;;;47.90;42.80;;;;;;;13.40;100.00;99641.47;109681;1250;58978;-68
2023/09/08 03:43:18;;;;;;;49.30;43.90;;;;;;;13.37;100.00;99637.94;109618;1250;63749;-68
2023/09/08 03:45:45;;;;;;;49.30;44.00;;;;;;;13.35;100.00;99635.39;109616;1250;58945;-68
2023/09/08 03:48:12;;;;;;;49.80;44.40;;;;;;;13.34;100.00;99631.18;109675;1251;58860;-68
2023/09/08 03:50:38;;;;;;;48.20;43.00;;;;;;;13.33;100.00;99632.72;109611;1250;66165;-68
2023/09/08 03:53:05;;;;;;;48.20;43.00;;;;;;;13.32;100.00;99635.60;109629;1250;60079;-67
2023/09/08 03:55:31;;;;;;;45.50;40.80;;;;;;;13.30;100.00;99637.37;109633;1250;62830;-68
2023/09/08 03:57:58;;;;;;;45.40;40.60;;;;;;;13.26;100.00;99636.55;109662;1250;59038;-68
2023/09/08 04:00:25;;;;;;;44.20;39.60;;;;;;;13.22;100.00;99633.92;109173;1250;58989;-67
2023/09/08 04:02:51;;;;;;;44.30;39.70;;;;;;;13.18;100.00;99637.05;109668;1250;66062;-68
2023/09/08 04:05:18;;;;;;;43.40;38.70;;;;;;;13.14;100.00;99637.32;109452;1251;59070;-68
2023/09/08 04:07:45;;;;;;;42.70;38.30;;;;;;;13.11;100.00;99641.63;109295;1251;62947;-67
2023/09/08 04:10:12;;;;;;;41.70;37.30;;;;;;;13.09;100.00;99644.45;109678;1250;59062;-68
2023/09/08 04:12:42;;;;;;;42.70;38.30;;;;;;;13.07;100.00;99642.26;109639;1250;59082;-67
2023/09/08 04:15:09;;;;;;;40.00;35.80;;;;;;;13.06;100.00;99640.56;109631;1250;66006;-67
2023/09/08 04:17:36;;;;;;;40.70;36.40;;;;;;;13.04;100.00;99642.64;109678;1250;60016;-67
2023/09/08 04:20:05;;;;;;;40.60;36.60;;;;;;;13.03;100.00;99643.59;109426;1251;64056;-67
2023/09/08 04:22:32;;;;;;;37.90;34.20;;;;;;;13.03;100.00;99650.02;109298;1251;58964;-67
2023/09/08 04:25:00;;;;;;;36.70;33.10;;;;;;;13.05;100.00;99654.88;109623;1250;58948;-67
2023/09/08 04:27:27;;;;;;;38.20;34.20;;;;;;;13.08;100.00;99654.18;109667;1250;65845;-68
2023/09/08 04:29:53;;;;;;;36.30;32.60;;;;;;;13.20;100.00;99654.60;109693;1250;60165;-68
2023/09/08 04:32:20;;;;;;;37.30;33.40;;;;;;;13.42;100.00;99657.98;109690;1250;59060;-68
2023/09/08 04:34:46;;;;;;;38.70;34.90;;;;;;;13.64;100.00;99652.71;109649;1250;58922;-68
2023/09/08 04:37:14;;;;;;;34.70;31.40;;;;;;;13.92;100.00;99650.77;109529;1250;59024;-68
2023/09/08 04:39:40;;;;;;;34.10;30.70;;;;;;;14.21;100.00;99650.48;109710;1250;66070;-68
2023/09/08 04:42:07;;;;;;;32.70;29.50;;;;;;;14.45;100.00;99653.40;109711;1250;60094;-68
2023/09/08 04:44:34;;;;;;;28.00;25.30;;;;;;;14.64;100.00;99654.92;109698;1250;62814;-68
2023/09/08 04:47:00;;;;;;;26.40;23.90;;;;;;;14.65;100.00;99654.33;109315;1251;59047;-68
2023/09/08 04:49:28;;;;;;;22.20;20.20;;;;;;;14.78;100.00;99649.24;109702;1250;59005;-68
2023/09/08 04:51:55;;;;;;;21.30;18.10;;;;;;;15.18;100.00;99647.82;109698;1250;65722;-67
2023/09/08 04:54:22;;;;;;;18.90;17.10;;;;;;;15.54;100.00;99646.91;109678;1250;58960;-68
2023/09/08 04:56:48;;;;;;;17.60;15.90;;;;;;;15.84;100.00;99648.40;109659;1250;64103;-66
2023/09/08 04:59:15;;;;;;;17.20;15.60;;;;;;;16.16;100.00;99649.63;109314;1250;59623;-67
2023/09/08 05:01:43;;;;;;;17.50;15.60;;;;;;;16.39;100.00;99648.66;109654;1250;59310;-68
2023/09/08 05:04:11;;;;;;;17.10;15.60;;;;;;;16.64;100.00;99655.39;109671;1250;66007;-67
2023/09/08 05:06:38;;;;;;;15.60;14.00;;;;;;;16.93;100.00;99652.31;109691;1250;59506;-68
2023/09/08 05:09:04;;;;;;;14.70;13.30;;;;;;;17.32;100.00;99653.23;109676;1250;59049;-67
2023/09/08 05:11:31;;;;;;;14.60;13.20;;;;;;;17.65;100.00;99654.73;109348;1251;58971;-67
2023/09/08 05:13:58;;;;;;;15.00;13.00;;;;;;;17.94;100.00;99656.59;109669;1250;59044;-67
2023/09/08 05:17:07;;;;;;;13.60;12.30;;;;;;;18.18;100.00;99656.86;109656;1250;64943;-67
2023/09/08 05:19:14;;;;;;;14.60;13.20;;;;;;;18.49;100.00;99657.16;109565;1250;61331;-67
2023/09/08 05:21:41;;;;;;;15.20;13.40;;;;;;;18.75;100.00;99652.63;109646;1250;63821;-67
2023/09/08 05:24:08;;;;;;;14.20;12.80;;;;;;;18.99;100.00;99655.38;109688;1250;58940;-67
2023/09/08 05:26:37;;;;;;;16.90;14.10;;;;;;;19.21;100.00;99657.30;109659;1250;59067;-67
2023/09/08 05:29:04;;;;;;;14.80;13.30;;;;;;;19.49;100.00;99659.52;109658;1250;66015;-67
2023/09/08 05:31:30;;;;;;;14.00;12.70;;;;;;;19.71;100.00;99657.38;109688;1250;60213;-68
2023/09/08 05:33:57;;;;;;;14.00;12.60;;;;;;;19.87;100.00;99655.84;109669;1250;62901;-66
2023/09/08 05:36:23;;;;;;;13.50;12.10;;;;;;;20.07;100.00;99655.71;109607;1250;59005;-67
2023/09/08 05:38:50;;;;;;;13.40;11.70;;;;;;;20.26;100.00;99659.28;109698;1250;59090;-67
2023/09/08 05:41:16;;;;;;;13.10;11.70;;;;;;;20.44;100.00;99662.45;109664;1250;66061;-67
2023/09/08 05:43:44;;;;;;;13.50;11.30;;;;;;;20.64;100.00;99666.27;109378;1250;59156;-67
2023/09/08 05:46:10;;;;;;;15.90;12.20;;;;;;;20.94;100.00;99671.80;109641;1250;64027;-67
2023/09/08 05:48:37;;;;;;;13.60;12.30;;;;;;;21.11;100.00;99671.59;109389;1251;59021;-68
2023/09/08 05:51:05;;;;;;;13.10;11.80;;;;;;;21.27;100.00;99675.75;109665;1250;59103;-71
2023/09/08 05:53:31;;;;;;;12.80;11.50;;;;;;;21.38;100.00;99678.63;109605;1250;64628;-76
2023/09/08 05:55:58;;;;;;;12.00;10.80;;;;;;;21.46;100.00;99678.38;109609;1250;59142;-75
2023/09/08 05:58:27;;;;;;;14.30;11.20;;;;;;;21.53;100.00;99676.06;109603;1250;64889;-73
2023/09/08 06:00:54;;;;;;;15.40;12.20;;;;;;;21.61;100.00;99673.77;109628;1250;59021;-79
2023/09/08 06:03:20;;;;;;;14.60;11.10;;;;;;;21.64;100.00;99673.67;109541;1250;58973;-81
2023/09/08 06:05:47;;;;;;;13.00;11.50;;;;;;;21.66;100.00;99674.91;109525;1250;64902;-77
2023/09/08 06:08:13;;;;;;;13.00;11.80;;;;;;;21.62;100.00;99675.09;109609;1250;60077;-74
2023/09/08 06:10:40;;;;;;;13.50;12.10;;;;;;;21.62;100.00;99673.50;109657;1250;64182;-72
2023/09/08 06:13:07;;;;;;;14.30;12.90;;;;;;;21.61;100.00;99674.70;109589;1250;59400;-75
2023/09/08 06:15:34;;;;;;;15.10;13.60;;;;;;;21.52;100.00;99672.92;109590;1250;59013;-75
2023/09/08 06:18:00;;;;;;;15.30;13.70;;;;;;;21.49;100.00;99669.35;109666;1250;66028;-76
2023/09/08 06:20:27;;;;;;;15.40;13.90;;;;;;;21.40;100.00;99670.85;109588;1250;59196;-70
2023/09/08 06:22:54;;;;;;;17.30;15.60;;;;;;;21.35;100.00;99672.64;109564;1250;64885;-70
2023/09/08 06:25:20;;;;;;;18.00;16.50;;;;;;;21.27;100.00;99675.90;109257;1251;58998;-70
2023/09/08 06:27:47;;;;;;;19.50;17.70;;;;;;;21.04;100.00;99675.35;109639;1250;59130;-69
2023/09/08 06:30:16;;;;;;;19.00;17.00;;;;;;;20.79;100.00;99676.02;109640;1250;65883;-70
2023/09/08 06:32:42;;;;;;;21.10;19.00;;;;;;;20.53;100.00;99674.97;109590;1250;59069;-70
2023/09/08 06:35:09;;;;;;;22.00;19.90;;;;;;;20.28;100.00;99674.98;109603;1250;64049;-70
2023/09/08 06:37:37;;;;;;;23.10;20.80;;;;;;;20.05;100.00;99673.98;109532;1251;59987;-70
2023/09/08 06:40:04;;;;;;;22.60;20.40;;;;;;;19.81;100.00;99671.72;109626;1250;59003;-70
2023/09/08 06:42:32;;;;;;;24.50;22.10;;;;;;;19.71;100.00;99671.25;109049;1250;66118;-69
2023/09/08 06:44:59;;;;;;;25.30;22.90;;;;;;;19.59;100.00;99673.38;109550;1250;60124;-70
2023/09/08 06:47:25;;;;;;;25.00;22.50;;;;;;;19.49;100.00;99668.71;109590;1250;62870;-69
2023/09/08 06:49:52;;;;;;;25.30;22.70;;;;;;;19.48;100.00;99670.16;109603;1250;59089;-69
2023/09/08 06:52:18;;;;;;;23.10;20.50;;;;;;;19.46;100.00;99671.16;109425;1250;178838;-69
2023/09/08 06:54:45;;;;;;;20.50;18.50;;;;;;;19.41;100.00;99671.45;109571;1250;64829;-69
2023/09/08 06:57:13;;;;;;;21.60;19.50;;;;;;;19.42;100.00;99669.80;109543;1250;60089;-69
2023/09/08 06:59:40;;;;;;;18.90;17.10;;;;;;;19.46;100.00;99667.91;109556;1251;64022;-69
2023/09/08 07:02:07;;;;;;;19.00;17.20;;;;;;;19.51;100.00;99668.20;109535;1250;58926;-69
2023/09/08 07:04:33;;;;;;;18.70;16.90;;;;;;;19.58;100.00;99671.49;109606;1250;58866;-69
2023/09/08 07:07:06;;;;;;;19.70;17.60;;;;;;;19.69;100.00;99672.70;109420;1250;66044;-68
2023/09/08 07:09:35;;;;;;;17.60;16.00;;;;;;;19.77;100.00;99672.33;109680;1250;59024;-68
2023/09/08 07:12:03;;;;;;;17.70;16.10;;;;;;;19.83;100.00;99671.86;109651;1250;63793;-68
2023/09/08 07:14:30;;;;;;;18.80;17.00;;;;;;;19.82;100.00;99674.57;109565;1250;58937;-68
2023/09/08 07:16:57;;;;;;;19.20;17.30;;;;;;;19.78;100.00;99678.88;109614;1250;58985;-68
2023/09/08 07:19:23;;;;;;;19.00;17.10;;;;;;;19.75;100.00;99680.77;109331;1251;66039;-69
2023/09/08 07:21:50;;;;;;;18.90;17.00;;;;;;;19.72;100.00;99683.69;109547;1251;59972;-69
2023/09/08 07:24:16;;;;;;;21.60;17.90;;;;;;;19.72;100.00;99683.52;109610;1250;62871;-69
2023/09/08 07:26:43;;;;;;;17.20;15.60;;;;;;;19.74;100.00;99679.19;109631;1250;59006;-69
2023/09/08 07:29:09;;;;;;;18.60;16.90;;;;;;;19.84;100.00;99679.52;109652;1250;59013;-69
2023/09/08 07:31:36;;;;;;;17.60;15.20;;;;;;;19.93;100.00;99679.24;109606;1250;59278;-69
2023/09/08 07:34:02;;;;;;;17.50;15.80;;;;;;;20.03;100.00;99676.89;109652;1250;59047;-69
2023/09/08 07:36:29;;;;;;;19.20;17.30;;;;;;;20.11;100.00;99677.57;109383;1251;59133;-69
2023/09/08 07:38:56;;;;;;;19.20;16.50;;;;;;;20.15;100.00;99676.63;109559;1250;59050;-68
2023/09/08 07:41:22;;;;;;;19.10;17.10;;;;;;;20.21;100.00;99678.71;109633;1250;59771;-68
2023/09/08 07:43:50;;;;;;;16.90;15.30;;;;;;;20.28;100.00;99678.57;109633;1250;66035;-68
2023/09/08 07:46:17;;;;;;;15.80;14.20;;;;;;;20.39;100.00;99679.36;109416;1250;59339;-68
2023/09/08 07:48:43;;;;;;;17.00;15.20;;;;;;;20.42;100.00;99680.47;109594;1250;62824;-68
2023/09/08 07:51:10;;;;;;;15.90;14.30;;;;;;;20.45;100.00;99678.06;109601;1250;58970;-68
2023/09/08 07:53:36;;;;;;;15.70;14.00;;;;;;;20.48;100.00;99674.47;109605;1250;58993;-68
2023/09/08 07:56:04;;;;;;;15.80;14.30;;;;;;;20.54;100.00;99673.96;109365;1251;64816;-68
2023/09/08 07:58:30;;;;;;;15.40;13.80;;;;;;;20.63;100.00;99675.06;109648;1250;60134;-68
2023/09/08 08:00:57;;;;;;;14.50;13.10;;;;;;;20.75;100.00;99674.11;109596;1250;63788;-69
2023/09/08 08:03:23;;;;;;;14.60;13.10;;;;;;;20.87;100.00;99675.17;109585;1250;58923;-68
2023/09/08 08:05:50;;;;;;;15.60;13.80;;;;;;;21.01;100.00;99672.21;109664;1251;59055;-69
2023/09/08 08:08:17;;;;;;;13.40;12.10;;;;;;;21.14;100.00;99670.88;109653;1250;66080;-68
2023/09/08 08:10:43;;;;;;;13.00;11.50;;;;;;;21.23;100.00;99668.73;109716;1250;59033;-69
2023/09/08 08:13:10;;;;;;;13.70;12.30;;;;;;;21.32;100.00;99666.59;109441;1254;62732;-69
2023/09/08 08:15:38;;;;;;;14.90;13.50;;;;;;;21.38;100.00;99666.33;109643;1250;58992;-69
2023/09/08 08:18:06;;;;;;;14.10;11.30;;;;;;;21.45;100.00;99664.56;109611;1250;59023;-68
2023/09/08 08:20:36;;;;;;;12.50;11.30;;;;;;;21.53;100.00;99662.81;109682;1250;66020;-69
2023/09/08 08:23:04;;;;;;;16.40;12.30;;;;;;;21.59;100.00;99660.02;109654;1250;59797;-69
2023/09/08 08:25:32;;;;;;;13.80;12.40;;;;;;;21.61;100.00;99658.45;109637;1250;62819;-73
2023/09/08 08:28:00;;;;;;;14.40;12.80;;;;;;;21.59;100.00;99656.06;109315;1251;59010;-67
2023/09/08 08:30:27;;;;;;;12.60;11.10;;;;;;;21.65;100.00;99655.64;109640;1251;58889;-68
2023/09/08 08:32:54;;;;;;;13.10;11.80;;;;;;;21.75;100.00;99651.04;109704;1250;65036;-68
2023/09/08 08:35:20;;;;;;;13.60;12.00;;;;;;;21.87;100.00;99653.02;109650;1250;60146;-67
2023/09/08 08:37:47;;;;;;;13.60;12.40;;;;;;;21.97;100.00;99650.75;109327;1251;64116;-68
2023/09/08 08:40:14;;;;;;;13.80;12.40;;;;;;;22.03;100.00;99650.45;109597;1250;58979;-68
2023/09/08 08:42:42;;;;;;;14.90;12.30;;;;;;;22.03;100.00;99652.80;109665;1250;58920;-68
2023/09/08 08:45:09;;;;;;;14.30;12.00;;;;;;;22.08;100.00;99649.36;109652;1250;65941;-68
2023/09/08 08:47:35;;;;;;;12.70;11.40;;;;;;;22.13;100.00;99648.66;109348;1250;59003;-68
2023/09/08 08:50:03;;;;;;;12.30;11.10;;;;;;;22.22;100.00;99652.66;109604;1250;63735;-68
2023/09/08 08:52:30;;;;;;;11.80;10.60;;;;;;;22.29;100.00;99646.62;109521;1251;59016;-68
2023/09/08 08:54:57;;;;;;;11.90;10.60;;;;;;;22.34;100.00;99645.55;109674;1250;59046;-68
2023/09/08 08:57:27;;;;;;;11.50;10.40;;;;;;;22.45;100.00;99644.04;109644;1250;66097;-68
2023/09/08 08:59:53;;;;;;;;;;;;;;;22.59;100.00;99644.34;109669;1251;60219;-68
2023/09/08 09:02:21;;;;;;;10.20;9.30;;;;;;;22.70;100.00;99639.77;109605;1250;58921;-68
2023/09/08 09:04:48;;;;;;;11.80;8.90;;;;;;;22.78;100.00;99640.51;109559;1250;59019;-67
2023/09/08 09:07:18;;;;;;;11.70;10.50;;;;;;;22.93;100.00;99644.55;109648;1250;58873;-67
2023/09/08 09:09:45;;;;;;;10.40;9.40;;;;;;;23.07;100.00;99642.13;109626;1250;66025;-68
2023/09/08 09:12:12;;;;;;;10.00;9.00;;;;;;;23.21;100.00;99639.19;109656;1250;60205;-68
2023/09/08 09:14:45;;;;;;;9.70;8.60;;;;;;;23.32;100.00;99641.07;109616;1250;64083;-68
2023/09/08 09:17:14;;;;;;;11.70;9.10;;;;;;;23.39;100.00;99639.14;109616;1250;59038;-68
2023/09/08 09:19:41;;;;;;;10.30;9.30;;;;;;;23.51;100.00;99638.75;109608;1250;59007;-68
2023/09/08 09:22:07;;;;;;;9.10;8.10;;;;;;;23.64;100.00;99633.83;109622;1250;64752;-68
2023/09/08 09:24:45;;;;;;;9.30;8.30;;;;;;;23.76;100.00;99631.86;109682;1250;60395;-68
2023/09/08 09:27:12;;;;;;;9.70;8.80;;;;;;;23.82;100.00;99627.92;109640;1250;64112;-67
2023/09/08 09:29:46;;;;;;;9.50;8.60;;;;;;;23.89;100.00;99628.31;109599;1250;58944;-69
2023/09/08 09:32:13;;;;;;;10.00;8.80;;;;;;;23.94;100.00;99626.57;109621;1250;59023;-69
2023/09/08 09:34:53;;;;;;;10.20;9.20;;;;;;;23.94;100.00;99626.41;109332;1250;65909;-69
2023/09/08 09:37:20;;;;;;;10.30;8.70;;;;;;;24.00;100.00;99626.25;109619;1250;60165;-69
2023/09/08 09:39:51;;;;;;;9.60;8.70;;;;;;;24.04;100.00;99624.30;109611;1250;62852;-68
2023/09/08 09:42:19;;;;;;;9.20;8.30;;;;;;;24.08;100.00;99623.82;109614;1250;58955;-69
2023/09/08 09:44:48;;;;;;;9.70;8.80;;;;;;;24.22;100.00;99623.74;109684;1250;58989;-69
2023/09/08 09:47:15;;;;;;;10.20;8.80;;;;;;;24.28;100.00;99623.69;109635;1251;64848;-69
2023/09/08 09:49:46;;;;;;;12.60;9.60;;;;;;;24.34;100.00;99618.77;109628;1251;59842;-69
2023/09/08 09:52:15;;;;;;;9.80;8.50;;;;;;;24.39;100.00;99619.30;109617;1250;62871;-69
2023/09/08 09:54:43;;;;;;;8.80;8.00;;;;;;;24.42;100.00;99614.74;109593;1250;59113;-69
2023/09/08 09:57:14;;;;;;;9.30;8.30;;;;;;;24.47;100.00;99618.90;109661;1250;58878;-69
2023/09/08 09:59:41;;;;;;;10.30;8.10;;;;;;;24.46;100.00;99618.46;109647;1250;65790;-69
2023/09/08 10:02:14;;;;;;;12.30;8.60;;;;;;;24.34;100.00;99611.06;109589;1250;59001;-69
2023/09/08 10:04:42;;;;;;;8.80;8.00;;;;;;;24.32;100.00;99613.66;109663;1250;64387;-69
2023/09/08 10:07:08;;;;;;;9.20;8.30;;;;;;;24.38;100.00;99607.91;109588;1250;59040;-69
2023/09/08 10:09:36;;;;;;;8.80;7.40;;;;;;;24.45;100.00;99607.27;109640;1250;58962;-69
2023/09/08 10:12:05;;;;;;;8.50;7.70;;;;;;;24.54;100.00;99605.77;109278;1251;64501;-69
2023/09/08 10:14:35;;;;;;;8.30;7.40;;;;;;;24.59;100.00;99604.41;109625;1250;59100;-69
2023/09/08 10:17:05;;;;;;;7.60;6.90;;;;;;;24.61;100.00;99604.23;109652;1251;62933;-69
2023/09/08 10:19:36;;;;;;;8.00;7.20;;;;;;;24.62;100.00;99605.55;109601;1251;59052;-69
2023/09/08 10:22:04;;;;;;;7.70;7.00;;;;;;;24.71;100.00;99602.23;109328;1251;59042;-69
2023/09/08 10:24:34;;;;;;;8.20;7.20;;;;;;;24.85;100.00;99598.05;109624;1251;64862;-69
2023/09/08 10:27:08;;;;;;;7.70;7.00;;;;;;;24.92;100.00;99597.22;109643;1251;60604;-69
2023/09/08 10:29:35;;;;;;;7.90;6.90;;;;;;;24.92;100.00;99597.14;109605;1250;64063;-69
2023/09/08 10:32:03;;;;;;;7.60;6.80;;;;;;;24.92;100.00;99592.77;109593;1251;58937;-69
2023/09/08 10:34:31;;;;;;;7.80;6.60;;;;;;;24.95;100.00;99590.70;109322;1250;58975;-69
2023/09/08 10:36:58;;;;;;;7.30;6.60;;;;;;;25.03;100.00;99590.75;109657;1251;64458;-69
2023/09/08 10:39:37;;;;;;;8.20;7.00;;;;;;;25.13;100.00;99589.35;109681;1251;59840;-69
2023/09/08 10:42:22;;;;;;;8.50;7.60;;;;;;;25.24;100.00;99586.28;109580;1251;64001;-69
2023/09/08 10:44:51;;;;;;;10.30;7.30;;;;;;;25.31;100.00;99583.39;109597;1250;58979;-69
2023/09/08 10:47:25;;;;;;;7.70;7.00;;;;;;;25.35;100.00;99582.20;109625;1250;59123;-69
2023/09/08 10:49:54;;;;;;;8.00;7.30;;;;;;;25.36;100.00;99580.63;109610;1251;64808;-69
2023/09/08 10:52:25;;;;;;;8.40;7.50;;;;;;;25.36;100.00;99582.23;109632;1251;60155;-69
2023/09/08 10:54:53;;;;;;;8.70;7.80;;;;;;;25.35;100.00;99577.84;109586;1251;64219;-69
2023/09/08 10:57:26;;;;;;;8.60;7.70;;;;;;;25.41;100.00;99576.14;109635;1250;58971;-69
2023/09/08 10:59:57;;;;;;;7.60;6.70;;;;;;;25.49;100.00;99572.54;109322;1251;59044;-69
2023/09/08 11:02:38;;;;;;;8.00;7.30;;;;;;;25.61;100.00;99568.74;109598;1251;65777;-69
2023/09/08 11:05:10;;;;;;;8.90;8.00;;;;;;;25.72;100.00;99564.23;109592;1251;58988;-69
2023/09/08 11:07:38;;;;;;;8.40;7.50;;;;;;;25.77;100.00;99562.39;109612;1250;62848;-69